createdAt,value
2019-04-22T00:01:19.661Z,8.04
2019-04-22T00:03:55.161Z,7.98
2019-04-22T00:06:44.341Z,7.88
2019-04-22T00:09:26.862Z,7.81
2019-04-22T00:11:59.288Z,7.68
2019-04-22T00:14:28.068Z,7.64
2019-04-22T00:17:07.012Z,7.56
2019-04-22T00:19:46.529Z,7.49
2019-04-22T00:22:22.204Z,7.43
2019-04-22T00:24:51.138Z,7.33
2019-04-22T00:27:32.071Z,7.28
2019-04-22T00:32:42.068Z,7.11
2019-04-22T00:35:18.090Z,7.01
2019-04-22T00:37:59.805Z,6.91
2019-04-22T00:40:34.121Z,6.86
2019-04-22T00:43:05.110Z,6.79
2019-04-22T00:48:21.013Z,12.27
2019-04-22T00:53:33.392Z,10.28
2019-04-22T01:01:20.726Z,8.80
2019-04-22T01:04:05.542Z,8.51
2019-04-22T01:06:27.366Z,8.25
2019-04-22T01:09:04.613Z,8.04
2019-04-22T01:11:33.631Z,7.82
2019-04-22T01:14:07.818Z,7.63
2019-04-22T01:16:48.585Z,7.45
2019-04-22T01:19:24.759Z,7.26
2019-04-22T01:22:02.868Z,7.12
2019-04-22T01:24:32.776Z,9.65
2019-04-22T01:27:03.677Z,10.67
2019-04-22T01:29:39.945Z,9.73
2019-04-22T01:32:00.229Z,9.04
2019-04-22T01:34:51.620Z,8.55
2019-04-22T01:37:28.739Z,8.17
2019-04-22T01:40:09.675Z,7.91
2019-04-22T01:42:53.629Z,7.64
2019-04-22T01:45:19.255Z,7.43
2019-04-22T01:47:57.723Z,7.26
2019-04-22T01:50:27.771Z,7.10
2019-04-22T01:53:06.290Z,6.91
2019-04-22T01:55:39.112Z,6.75
2019-04-22T01:58:08.990Z,6.57
2019-04-22T02:00:49.368Z,6.44
2019-04-22T02:03:30.603Z,8.10
2019-04-22T02:05:59.201Z,11.64
2019-04-22T02:08:42.101Z,11.67
2019-04-22T02:11:08.078Z,10.40
2019-04-22T02:13:44.805Z,9.52
2019-04-22T02:16:15.089Z,8.95
2019-04-22T02:18:58.425Z,8.48
2019-04-22T02:21:21.566Z,8.16
2019-04-22T02:23:53.924Z,7.84
2019-04-22T02:26:38.233Z,7.58
2019-04-22T02:29:10.932Z,7.33
2019-04-22T02:31:44.585Z,7.10
2019-04-22T02:36:50.881Z,11.50
2019-04-22T02:39:24.607Z,10.69
2019-04-22T02:42:09.416Z,9.66
2019-04-22T02:55:01.323Z,7.33
2019-04-22T02:57:45.065Z,7.05
2019-04-22T03:00:05.542Z,6.80
2019-04-22T03:05:22.016Z,9.65
2019-04-22T03:07:56.126Z,11.72
2019-04-22T03:12:51.965Z,9.52
2019-04-22T03:15:38.058Z,8.75
2019-04-22T03:18:10.013Z,8.22
2019-04-22T03:20:42.770Z,7.80
2019-04-22T03:23:31.782Z,7.46
2019-04-22T03:28:32.921Z,8.84
2019-04-22T03:31:58.221Z,11.74
2019-04-22T03:39:31.987Z,8.85
2019-04-22T03:44:31.293Z,7.84
2019-04-22T03:47:16.162Z,7.49
2019-04-22T03:52:10.767Z,10.31
2019-04-22T03:54:45.750Z,10.91
2019-04-22T04:02:29.319Z,8.33
2019-04-22T04:05:25.799Z,7.91
2019-04-22T04:10:25.304Z,7.28
2019-04-22T04:15:18.667Z,9.53
2019-04-22T04:17:51.893Z,11.77
2019-04-22T04:20:34.394Z,10.71
2019-04-22T04:25:42.852Z,9.07
2019-04-22T04:30:40.027Z,8.23
2019-04-22T04:35:57.945Z,7.97
2019-04-22T04:38:32.272Z,11.16
2019-04-22T04:41:06.474Z,11.40
2019-04-22T04:43:46.541Z,10.35
2019-04-22T04:51:33.234Z,8.68
2019-04-22T04:54:08.071Z,8.41
2019-04-22T04:56:38.491Z,8.13
2019-04-22T04:59:19.304Z,9.20
2019-04-22T05:01:44.838Z,11.57
2019-04-22T05:04:26.374Z,10.71
2019-04-22T05:09:22.366Z,9.34
2019-04-22T05:12:01.738Z,8.99
2019-04-22T05:14:28.699Z,8.72
2019-04-22T05:17:15.738Z,8.50
2019-04-22T05:19:37.539Z,8.33
2019-04-22T05:22:28.371Z,8.51
2019-04-22T05:24:43.997Z,11.56
2019-04-22T05:30:10.071Z,10.59
2019-04-22T05:32:30.999Z,10.08
2019-04-22T05:35:00.219Z,9.73
2019-04-22T05:40:16.332Z,9.33
2019-04-22T05:42:48.300Z,9.21
2019-04-22T05:45:23.084Z,9.10
2019-04-22T05:50:24.069Z,8.96
2019-04-22T05:55:41.547Z,9.72
2019-04-22T05:58:18.843Z,11.32
2019-04-22T06:03:46.134Z,10.40
2019-04-22T06:06:18.184Z,10.18
2019-04-22T06:08:55.844Z,10.03
2019-04-22T06:11:29.503Z,9.97
2019-04-22T06:14:05.368Z,9.94
2019-04-22T06:16:38.139Z,9.90
2019-04-22T06:19:14.051Z,9.89
2019-04-22T06:22:07.112Z,9.92
2019-04-22T06:24:26.016Z,9.92
2019-04-22T06:27:10.256Z,9.93
2019-04-22T06:29:41.203Z,9.98
2019-04-22T06:32:23.234Z,12.17
2019-04-22T06:34:42.098Z,12.96
2019-04-22T06:37:20.720Z,12.41
2019-04-22T06:39:45.268Z,12.03
2019-04-22T06:42:28.406Z,11.81
2019-04-22T06:44:58.007Z,11.70
2019-04-22T06:47:43.893Z,11.57
2019-04-22T06:50:07.664Z,11.49
2019-04-22T06:52:39.171Z,11.43
2019-04-22T06:55:16.590Z,11.40
2019-04-22T06:57:53.600Z,11.39
2019-04-22T07:00:24.701Z,11.40
2019-04-22T07:05:43.793Z,11.42
2019-04-22T07:08:37.081Z,11.42
2019-04-22T07:13:23.264Z,11.51
2019-04-22T07:16:03.993Z,11.51
2019-04-22T07:18:31.179Z,11.57
2019-04-22T07:21:02.754Z,11.68
2019-04-22T07:23:44.666Z,11.75
2019-04-22T07:26:11.810Z,11.91
2019-04-22T07:28:46.704Z,12.03
2019-04-22T07:31:16.232Z,12.19
2019-04-22T07:33:56.837Z,12.39
2019-04-22T07:39:03.986Z,12.59
2019-04-22T07:41:37.924Z,12.72
2019-04-22T07:44:20.708Z,12.84
2019-04-22T07:46:51.627Z,12.93
2019-04-22T07:49:22.133Z,13.02
2019-04-22T07:51:51.370Z,13.11
2019-04-22T07:54:25.825Z,13.21
2019-04-22T07:57:08.740Z,13.28
2019-04-22T07:59:40.794Z,13.31
2019-04-22T08:02:16.116Z,13.35
2019-04-22T08:04:58.996Z,13.34
2019-04-22T08:07:24.218Z,13.28
2019-04-22T08:10:12.493Z,13.27
2019-04-22T08:15:05.794Z,13.38
2019-04-22T08:17:55.994Z,13.39
2019-04-22T08:20:19.036Z,13.41
2019-04-22T08:22:51.040Z,13.46
2019-04-22T08:25:26.834Z,13.51
2019-04-22T08:27:57.190Z,13.58
2019-04-22T08:33:11.157Z,13.69
2019-04-22T08:36:01.592Z,13.70
2019-04-22T08:41:22.930Z,13.69
2019-04-22T08:51:36.290Z,13.48
2019-04-22T08:56:58.374Z,13.51
2019-04-22T09:01:49.186Z,13.49
2019-04-22T09:04:23.382Z,13.49
2019-04-22T09:07:14.125Z,13.51
2019-04-22T09:09:39.417Z,13.49
2019-04-22T09:12:15.924Z,13.48
2019-04-22T09:17:21.402Z,13.41
2019-04-22T09:19:55.976Z,13.45
2019-04-22T09:22:26.294Z,13.53
2019-04-22T09:25:03.303Z,13.53
2019-04-22T09:27:44.305Z,13.59
2019-04-22T09:30:15.744Z,13.58
2019-04-22T09:35:24.866Z,13.60
2019-04-22T09:40:30.125Z,13.66
2019-04-22T09:43:05.025Z,13.68
2019-04-22T09:45:43.227Z,13.69
2019-04-22T09:48:23.738Z,13.66
2019-04-22T09:50:51.992Z,13.73
2019-04-22T09:53:34.031Z,13.77
2019-04-22T09:56:03.690Z,13.77
2019-04-22T09:58:40.317Z,13.79
2019-04-22T10:03:56.221Z,14.04
2019-04-22T10:06:27.778Z,14.19
2019-04-22T10:09:26.289Z,14.40
2019-04-22T10:14:08.760Z,14.84
2019-04-22T10:16:39.489Z,15.04
2019-04-22T10:19:18.645Z,15.28
2019-04-22T10:22:08.437Z,15.50
2019-04-22T10:24:19.164Z,15.70
2019-04-22T10:26:59.942Z,15.84
2019-04-22T10:35:55.365Z,16.11
2019-04-22T10:38:32.507Z,16.09
2019-04-22T10:41:16.464Z,16.24
2019-04-22T10:50:42.908Z,16.75
2019-04-22T10:53:31.342Z,16.92
2019-04-22T10:56:05.262Z,16.96
2019-04-22T10:58:56.202Z,17.05
2019-04-22T11:01:38.623Z,17.17
2019-04-22T11:04:13.210Z,17.28
2019-04-22T11:06:53.071Z,17.38
2019-04-22T11:09:23.392Z,17.42
2019-04-22T11:12:04.474Z,17.49
2019-04-22T11:14:34.823Z,17.62
2019-04-22T11:17:08.983Z,17.73
2019-04-22T11:19:43.509Z,17.90
2019-04-22T11:22:22.045Z,18.05
2019-04-22T11:24:51.230Z,18.19
2019-04-22T11:27:25.377Z,18.33
2019-04-22T11:29:59.570Z,18.53
2019-04-22T11:32:32.841Z,18.68
2019-04-22T11:35:09.871Z,18.81
2019-04-22T11:37:43.826Z,18.88
2019-04-22T11:40:28.533Z,18.97
2019-04-22T11:42:56.403Z,19.29
2019-04-22T11:45:33.253Z,19.67
2019-04-22T11:48:07.154Z,20.06
2019-04-22T11:50:41.920Z,20.40
2019-04-22T11:53:14.865Z,20.59
2019-04-22T11:55:48.949Z,20.76
2019-04-22T11:58:22.632Z,20.90
2019-04-22T12:00:57.043Z,20.87
2019-04-22T12:03:31.655Z,21.03
2019-04-22T12:06:04.409Z,21.30
2019-04-22T12:08:37.392Z,21.55
2019-04-22T12:11:11.652Z,21.76
2019-04-22T12:13:46.294Z,21.97
2019-04-22T12:16:19.301Z,22.14
2019-04-22T12:18:53.369Z,22.22
2019-04-22T12:21:27.131Z,22.18
2019-04-22T12:24:01.021Z,22.29
2019-04-22T12:26:34.537Z,22.47
2019-04-22T12:29:08.941Z,22.80
2019-04-22T12:31:42.354Z,22.99
2019-04-22T12:34:15.757Z,23.22
2019-04-22T12:36:49.044Z,23.31
2019-04-22T12:39:22.982Z,23.43
2019-04-22T12:41:56.232Z,23.26
2019-04-22T12:44:30.527Z,23.18
2019-04-22T12:47:05.701Z,23.32
2019-04-22T12:49:40.978Z,23.54
2019-04-22T12:52:24.080Z,23.71
2019-04-22T12:54:49.265Z,23.97
2019-04-22T12:57:22.832Z,24.23
2019-04-22T12:59:57.451Z,24.54
2019-04-22T13:02:31.300Z,24.83
2019-04-22T13:05:05.930Z,25.10
2019-04-22T13:07:39.857Z,25.22
2019-04-22T13:10:17.769Z,25.20
2019-04-22T13:12:51.066Z,25.03
2019-04-22T13:15:24.223Z,24.72
2019-04-22T13:18:05.776Z,24.70
2019-04-22T13:20:32.381Z,24.67
2019-04-22T13:23:05.329Z,24.74
2019-04-22T13:25:38.904Z,24.61
2019-04-22T13:28:13.301Z,24.36
2019-04-22T13:30:48.533Z,24.57
2019-04-22T13:33:22.991Z,24.71
2019-04-22T13:35:57.536Z,24.71
2019-04-22T13:38:31.129Z,24.72
2019-04-22T13:41:16.506Z,24.72
2019-04-22T13:43:38.949Z,24.75
2019-04-22T13:46:12.475Z,24.49
2019-04-22T13:49:08.768Z,24.36
2019-04-22T13:56:50.648Z,24.26
2019-04-22T13:59:15.055Z,24.26
2019-04-22T14:01:43.028Z,24.46
2019-04-22T14:04:20.959Z,24.67
2019-04-22T14:06:54.632Z,24.97
2019-04-22T14:09:28.364Z,25.22
2019-04-22T14:12:05.836Z,25.37
2019-04-22T14:14:39.261Z,25.50
2019-04-22T14:17:11.452Z,25.56
2019-04-22T14:19:44.746Z,25.81
2019-04-22T14:22:17.859Z,25.90
2019-04-22T14:24:52.413Z,25.61
2019-04-22T14:27:38.135Z,25.20
2019-04-22T14:30:01.982Z,24.85
2019-04-22T14:32:37.852Z,24.97
2019-04-22T14:35:13.505Z,25.02
2019-04-22T14:37:47.820Z,25.15
2019-04-22T14:40:22.960Z,25.34
2019-04-22T14:43:13.211Z,25.40
2019-04-22T14:46:02.873Z,25.38
2019-04-22T14:48:33.034Z,25.38
2019-04-22T14:50:57.690Z,25.58
2019-04-22T14:53:36.163Z,25.85
2019-04-22T14:55:48.655Z,26.00
2019-04-22T14:58:22.656Z,26.33
2019-04-22T15:00:56.919Z,26.28
2019-04-22T15:03:31.418Z,26.23
2019-04-22T15:06:04.399Z,26.21
2019-04-22T15:08:39.247Z,26.13
2019-04-22T15:11:13.208Z,26.30
2019-04-22T15:13:47.462Z,26.52
2019-04-22T15:16:38.177Z,26.79
2019-04-22T15:19:16.036Z,27.11
2019-04-22T15:21:50.338Z,27.27
2019-04-22T15:24:27.548Z,27.40
2019-04-22T15:27:02.620Z,27.55
2019-04-22T15:29:35.578Z,27.58
2019-04-22T15:32:09.346Z,27.48
2019-04-22T15:34:43.583Z,27.27
2019-04-22T15:37:17.818Z,26.94
2019-04-22T15:39:52.317Z,26.72
2019-04-22T15:42:28.696Z,26.37
2019-04-22T15:45:02.591Z,25.96
2019-04-22T15:47:37.453Z,25.31
2019-04-22T15:50:12.121Z,24.85
2019-04-22T15:52:50.026Z,24.35
2019-04-22T15:55:20.733Z,24.12
2019-04-22T15:57:54.212Z,24.15
2019-04-22T16:00:38.282Z,24.22
2019-04-22T16:03:04.879Z,24.35
2019-04-22T16:05:37.758Z,24.42
2019-04-22T16:08:10.874Z,24.58
2019-04-22T16:10:43.983Z,24.64
2019-04-22T16:13:23.063Z,24.72
2019-04-22T16:15:52.361Z,24.74
2019-04-22T16:18:26.533Z,24.71
2019-04-22T16:21:00.323Z,24.60
2019-04-22T16:23:36.473Z,24.50
2019-04-22T16:26:15.301Z,24.56
2019-04-22T16:28:49.314Z,24.50
2019-04-22T16:31:25.106Z,24.29
2019-04-22T16:33:58.430Z,23.85
2019-04-22T16:36:31.213Z,23.53
2019-04-22T16:39:04.715Z,23.52
2019-04-22T16:41:38.959Z,23.38
2019-04-22T16:44:14.333Z,23.31
2019-04-22T16:46:47.747Z,23.25
2019-04-22T16:49:21.578Z,23.15
2019-04-22T16:51:54.290Z,23.17
2019-04-22T16:54:27.883Z,23.05
2019-04-22T16:57:01.883Z,22.97
2019-04-22T16:59:35.190Z,22.94
2019-04-22T17:02:19.500Z,22.69
2019-04-22T17:04:59.672Z,22.56
2019-04-22T17:07:34.387Z,22.29
2019-04-22T17:10:10.072Z,21.79
2019-04-22T17:12:53.228Z,21.37
2019-04-22T17:15:18.887Z,20.95
2019-04-22T17:17:54.935Z,20.50
2019-04-22T17:20:29.146Z,20.10
2019-04-22T17:23:02.185Z,19.68
2019-04-22T17:25:36.317Z,19.39
2019-04-22T17:28:09.812Z,19.09
2019-04-22T17:30:43.802Z,18.73
2019-04-22T17:33:16.960Z,18.43
2019-04-22T17:35:50.345Z,18.15
2019-04-22T17:38:36.515Z,17.96
2019-04-22T17:41:11.889Z,17.72
2019-04-22T17:43:59.107Z,17.49
2019-04-22T17:46:27.835Z,17.28
2019-04-22T17:49:10.242Z,17.06
2019-04-22T17:51:49.935Z,16.89
2019-04-22T17:54:20.943Z,16.69
2019-04-22T17:56:50.986Z,16.52
2019-04-22T17:59:29.476Z,16.36
2019-04-22T18:01:58.291Z,16.19
2019-04-22T18:04:15.894Z,16.03
2019-04-22T18:07:15.392Z,15.86
2019-04-22T18:10:14.669Z,15.72
2019-04-22T18:12:27.222Z,15.60
2019-04-22T18:14:59.663Z,15.47
2019-04-22T18:17:30.489Z,15.32
2019-04-22T18:19:58.250Z,15.19
2019-04-22T18:22:29.751Z,15.06
2019-04-22T18:25:04.980Z,14.94
2019-04-22T18:30:17.966Z,14.71
2019-04-22T18:32:57.060Z,14.60
2019-04-22T18:35:30.860Z,14.49
2019-04-22T18:38:12.327Z,14.42
2019-04-22T18:40:47.732Z,14.29
2019-04-22T18:43:24.579Z,14.22
2019-04-22T18:46:00.264Z,14.14
2019-04-22T18:48:21.828Z,14.04
2019-04-22T18:51:13.435Z,13.96
2019-04-22T18:53:48.330Z,13.89
2019-04-22T18:56:19.534Z,13.82
2019-04-22T18:58:47.743Z,13.75
2019-04-22T19:01:12.491Z,13.69
2019-04-22T19:03:55.178Z,13.63
2019-04-22T19:06:56.962Z,13.56
2019-04-22T19:09:22.157Z,13.52
2019-04-22T19:12:03.168Z,13.45
2019-04-22T19:14:24.310Z,13.38
2019-04-22T19:17:12.164Z,13.37
2019-04-22T19:22:03.516Z,13.27
2019-04-22T19:24:40.060Z,13.23
2019-04-22T19:27:16.167Z,13.21
2019-04-22T19:29:55.837Z,13.16
2019-04-22T19:32:25.374Z,13.13
2019-04-22T19:34:56.913Z,13.13
2019-04-22T19:37:33.196Z,13.09
2019-04-22T19:40:30.689Z,13.07
2019-04-22T19:42:53.463Z,13.04
2019-04-22T19:45:16.225Z,13.02
2019-04-22T19:47:56.570Z,12.96
2019-04-22T19:50:34.993Z,12.93
2019-04-22T19:53:05.048Z,12.93
2019-04-22T19:55:43.695Z,12.87
2019-04-22T19:58:18.287Z,12.83
2019-04-22T20:01:13.467Z,12.83
2019-04-22T20:04:12.169Z,12.82
2019-04-22T20:06:41.362Z,12.75
2019-04-22T20:09:20.651Z,12.74
2019-04-22T20:11:55.209Z,12.74
2019-04-22T20:14:33.731Z,12.72
2019-04-22T20:16:58.511Z,12.71
2019-04-22T20:22:09.688Z,12.65
2019-04-22T20:24:29.256Z,12.66
2019-04-22T20:27:28.519Z,12.65
2019-04-22T20:30:13.774Z,12.64
2019-04-22T20:32:26.196Z,12.62
2019-04-22T20:35:04.069Z,12.62
2019-04-22T20:37:42.648Z,12.61
2019-04-22T20:40:11.681Z,12.58
2019-04-22T20:42:55.645Z,12.58
2019-04-22T20:45:22.843Z,12.52
2019-04-22T20:47:52.498Z,12.54
2019-04-22T20:50:36.377Z,12.48
2019-04-22T20:53:16.180Z,12.48
2019-04-22T20:55:46.433Z,12.44
2019-04-22T20:58:24.090Z,12.43
2019-04-22T21:00:46.271Z,12.40
2019-04-22T21:03:22.322Z,12.39
2019-04-22T21:05:52.562Z,12.36
2019-04-22T21:08:36.082Z,12.34
2019-04-22T21:11:06.038Z,12.33
2019-04-22T21:13:41.114Z,12.31
2019-04-22T21:16:22.283Z,12.27
2019-04-22T21:18:47.271Z,12.24
2019-04-22T21:21:31.729Z,12.22
2019-04-22T21:23:59.668Z,12.20
2019-04-22T21:26:39.680Z,12.19
2019-04-22T21:29:12.996Z,12.15
2019-04-22T21:31:51.161Z,12.12
2019-04-22T21:34:22.103Z,12.07
2019-04-22T21:37:05.732Z,12.02
2019-04-22T21:39:30.219Z,11.99
2019-04-22T21:42:09.424Z,11.95
2019-04-22T21:44:42.007Z,11.89
2019-04-22T21:47:22.397Z,11.85
2019-04-22T21:50:09.814Z,11.81
2019-04-22T21:52:27.590Z,11.75
2019-04-22T21:55:06.934Z,11.72
2019-04-22T21:57:47.822Z,11.68
2019-04-22T22:00:25.301Z,11.64
2019-04-22T22:02:51.838Z,11.61
2019-04-22T22:05:21.755Z,11.57
2019-04-22T22:07:53.474Z,11.54
2019-04-22T22:10:43.423Z,11.49
2019-04-22T22:13:11.102Z,11.45
2019-04-22T22:15:47.625Z,11.42
2019-04-22T22:18:16.571Z,11.36
2019-04-22T22:21:12.935Z,11.29
2019-04-22T22:23:39.442Z,11.27
2019-04-22T22:26:04.510Z,11.23
2019-04-22T22:28:51.404Z,11.18
2019-04-22T22:31:24.083Z,11.14
2019-04-22T22:33:47.965Z,11.08
2019-04-22T22:36:20.723Z,11.05
2019-04-22T22:38:56.174Z,10.99
2019-04-22T22:41:12.233Z,10.95
2019-04-22T22:43:50.672Z,10.91
2019-04-22T22:46:31.853Z,10.90
2019-04-22T22:49:20.434Z,10.87
2019-04-22T22:51:57.434Z,10.80
2019-04-22T22:54:23.644Z,10.76
2019-04-22T22:57:09.091Z,10.71
2019-04-22T22:59:36.183Z,10.69
2019-04-22T23:02:08.172Z,10.64
2019-04-22T23:04:45.622Z,10.60
2019-04-22T23:07:24.290Z,10.57
2019-04-22T23:09:55.950Z,10.50
2019-04-22T23:12:34.772Z,10.50
2019-04-22T23:14:59.065Z,10.45
2019-04-22T23:17:24.167Z,10.43
2019-04-22T23:19:54.759Z,10.39
2019-04-22T23:22:39.609Z,10.33
2019-04-22T23:25:27.297Z,10.32
2019-04-22T23:28:00.099Z,10.28
2019-04-22T23:30:40.076Z,10.22
2019-04-22T23:33:27.724Z,10.18
2019-04-22T23:35:56.611Z,10.15
2019-04-22T23:38:42.554Z,10.10
2019-04-22T23:41:26.254Z,10.07
2019-04-22T23:43:56.261Z,10.04
2019-04-22T23:46:24.234Z,10.01
2019-04-22T23:48:53.518Z,10.01
2019-04-22T23:51:30.983Z,10.03
2019-04-22T23:54:07.082Z,9.97
2019-04-22T23:56:35.927Z,9.96
2019-04-22T23:59:23.439Z,9.92
